Time;durP1;ratioP1;P1;durP2;ratioP2;P2;SDS_P1;SDS_P2;PMS_P1;PMS_P2;Temp;Humidity;BMP_temperature;BMP_pressure;BME280_temperature;BME280_humidity;BME280_pressure;Samples;Min_cycle;Max_cycle;Signal;HPM_P1;HPM_P2
2023/11/27 00:01:19;;;;;;;3.60;1.75;;;;;;;22.07;27.42;100835.97;4233471;28;20047;-59
2023/11/27 00:03:21;;;;;;;;;;;;;;;22.08;27.06;100836.81;4230432;28;20112;-58
2023/11/27 00:05:23;;;;;;;4.53;2.05;;;;;;;22.08;27.35;100826.97;4232603;28;20249;-58
2023/11/27 00:07:24;;;;;;;;;;;;;;;22.09;27.00;100830.47;4239952;27;20571;-58
2023/11/27 00:09:26;;;;;;;4.22;1.73;;;;;;;22.09;27.09;100825.97;4233421;28;19951;-59
2023/11/27 00:11:27;;;;;;;4.07;1.85;;;;;;;22.08;27.30;100821.59;4243884;27;20133;-58
2023/11/27 00:13:29;;;;;;;5.35;2.08;;;;;;;22.10;26.99;100816.09;4234929;27;20043;-58
2023/11/27 00:15:31;;;;;;;;;;;;;;;22.08;27.37;100815.38;4234161;27;20110;-58
2023/11/27 00:17:32;;;;;;;4.53;1.98;;;;;;;22.05;27.29;100811.13;4238816;27;20107;-58
2023/11/27 00:19:34;;;;;;;3.83;1.77;;;;;;;22.03;27.25;100813.09;4250032;27;20055;-58
2023/11/27 00:21:35;;;;;;;5.03;2.05;;;;;;;22.02;27.38;100806.88;4240634;27;20138;-58
2023/11/27 00:23:37;;;;;;;4.40;1.92;;;;;;;22.01;27.31;100810.53;4246380;27;20059;-58
2023/11/27 00:25:39;;;;;;;3.95;1.67;;;;;;;22.02;27.19;100806.03;4246917;27;20043;-58
2023/11/27 00:27:42;;;;;;;4.10;1.80;;;;;;;22.01;27.38;100801.66;4238159;27;20146;-58
2023/11/27 00:29:44;;;;;;;3.85;1.70;;;;;;;22.03;27.11;100810.44;4249706;27;20043;-58
2023/11/27 00:31:45;;;;;;;5.53;1.98;;;;;;;22.01;27.12;100798.97;4241784;27;20481;-58
2023/11/27 00:33:47;;;;;;;4.60;1.90;;;;;;;22.00;27.25;100798.13;4225608;28;20054;-59
2023/11/27 00:35:49;;;;;;;3.92;1.80;;;;;;;21.98;26.93;100800.09;4229896;28;20048;-59
2023/11/27 00:37:51;;;;;;;;;;;;;;;21.97;27.00;100797.53;4238449;27;20079;-58
2023/11/27 00:39:53;;;;;;;5.13;1.90;;;;;;;21.89;27.36;100790.13;4249624;27;19923;-58
2023/11/27 00:41:54;;;;;;;4.68;2.00;;;;;;;21.92;27.14;100792.56;4225358;28;20467;-58
2023/11/27 00:43:56;;;;;;;4.50;2.00;;;;;;;21.93;27.47;100783.53;4242791;27;20046;-58
2023/11/27 00:45:59;;;;;;;4.63;1.88;;;;;;;21.96;27.26;100787.81;4248405;27;20086;-58
2023/11/27 00:48:02;;;;;;;4.03;1.73;;;;;;;21.98;27.08;100781.34;4244434;27;20096;-57
2023/11/27 00:50:04;;;;;;;4.95;1.90;;;;;;;22.00;27.04;100775.84;4232434;28;20528;-58
2023/11/27 00:52:05;;;;;;;5.22;2.00;;;;;;;22.01;27.37;100772.19;4236694;27;20071;-58
2023/11/27 00:54:07;;;;;;;4.78;2.17;;;;;;;22.01;26.90;100773.03;4240596;27;20055;-57
2023/11/27 00:56:09;;;;;;;;;;;;;;;21.97;27.04;100766.25;4232982;28;20054;-58
2023/11/27 00:58:11;;;;;;;5.25;2.00;;;;;;;21.95;27.21;100753.97;4244385;27;19919;-58
2023/11/27 01:00:12;;;;;;;;;;;;;;;21.93;27.09;100751.41;4232797;27;20043;-56
2023/11/27 01:02:14;;;;;;;3.95;1.90;;;;;;;21.91;27.53;100750.69;4234942;27;19926;-58
2023/11/27 01:04:16;;;;;;;4.07;1.90;;;;;;;21.96;27.29;100750.31;4241998;27;20044;-58
2023/11/27 01:06:18;;;;;;;;;;;;;;;21.96;27.34;100739.59;4232550;28;20043;-57
2023/11/27 01:08:19;;;;;;;4.65;2.08;;;;;;;21.99;27.33;100733.97;4242583;27;20009;-58
2023/11/27 01:10:21;;;;;;;4.63;1.83;;;;;;;21.98;27.39;100724.25;4234350;27;20509;-58
2023/11/27 01:12:23;;;;;;;5.35;2.10;;;;;;;22.02;27.21;100734.56;4233362;27;20487;-59
2023/11/27 01:14:25;;;;;;;4.88;1.90;;;;;;;22.02;27.18;100725.69;4237372;27;20429;-59
2023/11/27 01:16:27;;;;;;;4.30;1.80;;;;;;;22.02;27.08;100728.38;4248902;27;20077;-59
2023/11/27 01:18:29;;;;;;;4.75;1.90;;;;;;;22.00;27.01;100717.78;4239445;27;20036;-58
2023/11/27 01:20:30;;;;;;;5.40;2.10;;;;;;;21.97;27.06;100714.50;4245220;27;20047;-58
2023/11/27 01:22:32;;;;;;;6.03;2.00;;;;;;;21.96;27.26;100700.28;4247408;27;20091;-58
2023/11/27 01:24:33;;;;;;;4.47;1.75;;;;;;;21.93;27.26;100692.50;4237606;27;20431;-59
2023/11/27 01:26:36;;;;;;;3.88;1.60;;;;;;;21.98;27.07;100686.75;4249270;27;20054;-58
2023/11/27 01:28:37;;;;;;;4.47;1.80;;;;;;;22.00;27.14;100692.84;4240984;27;20048;-59
2023/11/27 01:30:39;;;;;;;4.57;1.88;;;;;;;22.01;27.04;100695.38;4243681;27;20074;-58
2023/11/27 01:32:44;;;;;;;5.10;1.77;;;;;;;22.02;27.01;100683.69;4247165;27;20051;-59
2023/11/27 01:34:45;;;;;;;5.55;2.25;;;;;;;22.03;27.31;100681.88;4237214;27;20092;-58
2023/11/27 01:36:47;;;;;;;4.68;2.08;;;;;;;22.02;27.31;100675.66;4248454;27;20130;-57
2023/11/27 01:38:49;;;;;;;4.82;1.80;;;;;;;22.02;27.07;100674.81;4242329;27;20075;-59
2023/11/27 01:40:50;;;;;;;4.53;1.67;;;;;;;21.99;27.13;100675.94;4242136;27;20092;-56
2023/11/27 01:42:52;;;;;;;4.07;1.70;;;;;;;21.96;27.10;100676.19;4247909;27;20047;-57
2023/11/27 01:44:54;;;;;;;;;;;;;;;21.94;27.59;100666.56;4236614;27;20075;-57
2023/11/27 01:46:56;;;;;;;4.93;2.00;;;;;;;21.92;27.34;100672.06;4248255;27;19919;-57
2023/11/27 01:48:58;;;;;;;4.82;1.98;;;;;;;21.97;27.47;100672.53;4243957;27;20781;-56
2023/11/27 01:50:59;;;;;;;4.88;1.80;;;;;;;22.00;27.15;100671.41;4239754;27;20130;-56
2023/11/27 01:53:01;;;;;;;4.82;1.80;;;;;;;22.02;27.44;100666.78;4231338;28;20044;-58
2023/11/27 01:55:03;;;;;;;6.22;2.05;;;;;;;22.04;27.51;100675.50;4243686;27;20058;-57
2023/11/27 01:57:15;;;;;;;3.33;1.65;;;;;;;22.04;27.39;100661.28;4231499;27;20096;-57
2023/11/27 01:59:17;;;;;;;4.53;1.75;;;;;;;22.02;27.39;100656.06;4235373;27;20044;-57
2023/11/27 02:01:19;;;;;;;4.35;1.80;;;;;;;22.00;27.17;100663.38;4239921;27;20040;-57
2023/11/27 02:03:21;;;;;;;5.05;1.98;;;;;;;21.88;27.34;100632.28;4231539;28;20058;-57
2023/11/27 02:05:23;;;;;;;4.78;1.70;;;;;;;21.98;27.31;100646.59;4242904;27;20126;-57
2023/11/27 02:07:25;;;;;;;;;;;;;;;21.97;27.47;100647.56;4232126;27;20468;-56
2023/11/27 02:09:26;;;;;;;3.97;1.73;;;;;;;21.95;27.09;100644.19;4233658;27;19974;-57
2023/11/27 02:11:28;;;;;;;3.78;1.70;;;;;;;21.99;27.14;100638.44;4240885;27;20051;-56
2023/11/27 02:13:29;;;;;;;3.83;1.80;;;;;;;22.02;27.39;100631.97;4231306;28;20071;-57
2023/11/27 02:15:31;;;;;;;4.63;1.60;;;;;;;22.02;27.16;100616.75;4239717;27;20065;-59
2023/11/27 02:17:33;;;;;;;4.28;1.70;;;;;;;22.04;27.25;100631.84;4233527;27;20093;-56
2023/11/27 02:19:34;;;;;;;4.28;1.83;;;;;;;22.04;27.01;100623.78;4232263;27;20408;-56
2023/11/27 02:21:36;;;;;;;3.95;1.65;;;;;;;22.02;27.30;100618.59;4242456;27;20043;-56
2023/11/27 02:23:38;;;;;;;;;;;;;;;22.01;27.05;100611.53;4213440;28;20071;-56
2023/11/27 02:25:39;;;;;;;4.07;1.80;;;;;;;21.97;27.43;100610.06;4239176;27;20333;-56
2023/11/27 02:27:41;;;;;;;;;;;;;;;21.96;27.38;100603.88;4234981;27;20278;-57
2023/11/27 02:29:42;;;;;;;3.97;1.83;;;;;;;21.93;27.27;100603.28;4231930;27;19993;-57
2023/11/27 02:31:44;;;;;;;;;;;;;;;21.96;27.46;100603.03;4242012;27;20048;-57
2023/11/27 02:33:46;;;;;;;4.43;1.60;;;;;;;21.99;27.62;100605.44;4230835;28;19973;-57
2023/11/27 02:35:48;;;;;;;4.05;1.42;;;;;;;22.02;27.63;100600.66;4236141;27;20039;-57
2023/11/27 02:37:49;;;;;;;;;;;;;;;22.02;27.11;100592.63;4236907;27;20447;-56
2023/11/27 02:39:51;;;;;;;4.13;1.70;;;;;;;22.02;27.24;100587.28;4231608;27;20308;-56
2023/11/27 02:41:53;;;;;;;5.25;1.80;;;;;;;22.01;27.30;100577.53;4241647;27;20486;-58
2023/11/27 02:43:55;;;;;;;3.67;1.70;;;;;;;22.01;27.19;100584.75;4230804;28;20062;-61
2023/11/27 02:45:56;;;;;;;3.90;1.60;;;;;;;21.99;27.31;100570.63;4235130;27;20043;-58
2023/11/27 02:47:58;;;;;;;4.80;1.70;;;;;;;21.95;27.27;100569.22;4247419;27;20050;-58
2023/11/27 02:50:05;;;;;;;3.63;1.60;;;;;;;21.94;27.51;100562.16;4247430;27;20051;-59
2023/11/27 02:52:12;;;;;;;4.18;1.95;;;;;;;21.96;27.84;100569.06;4235612;27;20055;-58
2023/11/27 02:54:14;;;;;;;3.83;1.60;;;;;;;21.98;27.58;100569.78;4247686;27;20072;-59
2023/11/27 02:56:16;;;;;;;4.65;1.90;;;;;;;22.00;27.51;100561.63;4241995;27;20040;-58
2023/11/27 02:58:17;;;;;;;3.88;1.42;;;;;;;22.01;27.31;100561.47;4239561;27;20057;-58
2023/11/27 03:00:21;;;;;;;4.13;1.80;;;;;;;22.03;27.72;100545.28;4247359;27;20043;-57
2023/11/27 03:02:27;;;;;;;4.10;1.77;;;;;;;22.01;27.49;100545.41;4235686;27;20462;-58
2023/11/27 03:04:30;;;;;;;4.00;1.70;;;;;;;22.02;27.63;100540.91;4247312;27;20043;-58
2023/11/27 03:06:32;;;;;;;3.78;1.58;;;;;;;22.01;27.46;100544.56;4242907;27;20142;-58
2023/11/27 03:08:34;;;;;;;4.28;1.67;;;;;;;21.99;27.27;100543.84;4238702;27;20111;-58
2023/11/27 03:10:36;;;;;;;5.03;1.75;;;;;;;21.97;27.69;100535.97;4247008;27;20236;-58
2023/11/27 03:12:38;;;;;;;;;;;;;;;21.95;27.76;100527.19;4235444;27;20466;-56
2023/11/27 03:14:45;;;;;;;3.58;1.50;;;;;;;21.95;27.92;100524.53;4230346;28;19919;-58
2023/11/27 03:16:47;;;;;;;4.70;1.50;;;;;;;21.98;27.38;100526.94;4233434;27;20514;-58
2023/11/27 03:18:48;;;;;;;4.97;1.88;;;;;;;22.01;27.86;100524.00;4239453;27;20100;-58
2023/11/27 03:20:50;;;;;;;2.90;1.52;;;;;;;22.03;27.45;100526.56;4230044;28;20051;-58
2023/11/27 03:22:51;;;;;;;4.43;1.45;;;;;;;22.04;27.36;100519.34;4241170;27;20446;-57
2023/11/27 03:24:53;;;;;;;5.05;1.63;;;;;;;22.04;27.35;100517.50;4231015;27;20099;-56
2023/11/27 03:27:00;;;;;;;3.83;1.58;;;;;;;22.02;27.39;100501.59;4232060;27;20044;-57
2023/11/27 03:29:06;;;;;;;3.47;1.50;;;;;;;21.99;27.57;100501.88;4239636;27;20035;-56
2023/11/27 03:31:09;;;;;;;;;;;;;;;21.99;27.86;100490.28;4230591;28;20064;-57
2023/11/27 03:33:10;;;;;;;4.25;1.50;;;;;;;21.96;27.57;100490.59;4240690;27;19941;-58
2023/11/27 03:35:12;;;;;;;4.72;1.40;;;;;;;21.98;27.69;100485.91;4231631;27;20501;-57
2023/11/27 03:37:13;;;;;;;4.05;1.63;;;;;;;21.99;27.68;100479.59;4231216;27;20050;-57
2023/11/27 03:39:20;;;;;;;3.60;1.50;;;;;;;22.01;27.80;100477.63;4235780;27;20045;-57
2023/11/27 03:41:21;;;;;;;3.47;1.20;;;;;;;22.03;27.81;100464.97;4246887;27;20043;-57
2023/11/27 03:43:23;;;;;;;;;;;;;;;22.02;27.74;100461.41;4237380;27;20062;-57
2023/11/27 03:45:25;;;;;;;2.95;1.42;;;;;;;22.00;27.97;100449.97;4243494;27;20026;-57
2023/11/27 03:47:27;;;;;;;4.20;1.40;;;;;;;22.01;27.48;100446.31;4243459;28;20043;-57
2023/11/27 03:49:29;;;;;;;3.15;1.38;;;;;;;22.00;27.60;100447.31;4241234;28;20070;-57
2023/11/27 03:51:37;;;;;;;3.97;1.52;;;;;;;21.97;27.69;100446.72;4229796;28;20047;-57
2023/11/27 03:53:44;;;;;;;3.00;1.48;;;;;;;21.97;27.74;100439.56;4238776;28;20131;-57
2023/11/27 03:55:45;;;;;;;;;;;;;;;21.95;27.65;100429.97;4233036;28;20529;-57
2023/11/27 03:57:47;;;;;;;3.35;1.30;;;;;;;21.93;27.72;100434.59;4231006;28;19920;-58
2023/11/27 03:59:49;;;;;;;3.05;1.48;;;;;;;21.96;27.90;100426.31;4241006;28;20085;-58
2023/11/27 04:01:51;;;;;;;3.28;1.63;;;;;;;21.98;27.93;100419.84;4229834;28;20118;-58
2023/11/27 04:03:59;;;;;;;3.47;1.38;;;;;;;22.01;27.89;100418.72;4238461;28;20122;-58
2023/11/27 04:06:07;;;;;;;4.43;1.70;;;;;;;22.02;27.85;100415.06;4232677;28;20048;-59
2023/11/27 04:08:08;;;;;;;3.60;1.58;;;;;;;22.01;27.53;100414.19;4230564;28;20039;-58
2023/11/27 04:10:16;;;;;;;4.25;1.65;;;;;;;22.01;27.60;100418.72;4241028;28;20154;-58
2023/11/27 04:12:18;;;;;;;3.47;1.40;;;;;;;22.00;27.56;100417.00;4229638;28;20142;-59
2023/11/27 04:14:19;;;;;;;3.03;1.15;;;;;;;21.97;27.74;100410.09;4238252;28;20035;-59
2023/11/27 04:16:22;;;;;;;4.05;1.58;;;;;;;21.96;27.69;100410.25;4233232;28;20508;-58
2023/11/27 04:18:24;;;;;;;4.13;1.30;;;;;;;21.95;28.05;100401.34;4230723;28;20043;-58
2023/11/27 04:20:26;;;;;;;3.83;1.52;;;;;;;21.96;27.90;100405.72;4240819;28;20127;-58
2023/11/27 04:22:27;;;;;;;3.97;1.52;;;;;;;21.98;28.01;100406.44;4211253;28;20462;-58
2023/11/27 04:24:29;;;;;;;3.10;1.17;;;;;;;22.00;28.12;100398.28;4218565;28;20044;-58
2023/11/27 04:26:30;;;;;;;5.03;1.50;;;;;;;21.99;28.01;100394.75;4234742;28;20047;-58
2023/11/27 04:28:32;;;;;;;3.88;1.38;;;;;;;21.99;27.98;100394.75;4230864;28;20050;-58
2023/11/27 04:30:34;;;;;;;3.00;1.33;;;;;;;21.99;27.66;100392.09;4241141;28;20065;-58
2023/11/27 04:32:36;;;;;;;3.25;1.30;;;;;;;21.96;27.77;100387.00;4228708;28;20100;-58
2023/11/27 04:34:37;;;;;;;2.88;1.20;;;;;;;21.96;28.01;100389.66;4234861;28;20104;-58
2023/11/27 04:36:39;;;;;;;2.65;1.13;;;;;;;21.96;27.87;100386.16;4236142;28;20508;-58
2023/11/27 04:38:40;;;;;;;2.97;1.30;;;;;;;21.94;28.26;100388.94;4229514;28;20047;-58
2023/11/27 04:40:42;;;;;;;3.85;1.40;;;;;;;21.95;27.83;100379.09;4234729;28;20051;-58
2023/11/27 04:42:44;;;;;;;3.25;1.30;;;;;;;21.95;27.77;100369.22;4246423;28;20047;-58
2023/11/27 04:44:45;;;;;;;3.78;1.42;;;;;;;21.97;27.87;100369.06;4242397;28;20481;-58
2023/11/27 04:46:47;;;;;;;3.47;1.23;;;;;;;21.99;27.99;100367.13;4237356;28;20438;-58
2023/11/27 04:48:48;;;;;;;3.80;1.30;;;;;;;22.00;27.83;100360.78;4246563;28;20054;-58
2023/11/27 04:50:55;;;;;;;3.25;1.33;;;;;;;21.99;28.16;100361.75;4232202;28;20122;-58
2023/11/27 04:52:57;;;;;;;3.42;1.17;;;;;;;21.98;28.35;100354.72;4246045;27;20043;-58
2023/11/27 04:54:59;;;;;;;3.25;1.30;;;;;;;21.99;28.19;100343.03;4245807;27;20039;-58
2023/11/27 04:57:00;;;;;;;3.85;1.40;;;;;;;21.96;28.06;100349.50;4239583;27;20047;-57
2023/11/27 04:59:02;;;;;;;3.80;1.40;;;;;;;21.93;28.07;100344.41;4249634;27;20452;-58
2023/11/27 05:01:04;;;;;;;3.47;1.48;;;;;;;21.92;28.02;100339.19;4238327;27;20044;-58
2023/11/27 05:03:06;;;;;;;5.00;1.40;;;;;;;21.90;28.37;100323.28;4247351;27;20066;-58
2023/11/27 05:05:07;;;;;;;5.53;1.50;;;;;;;21.94;28.42;100322.00;4230668;28;20035;-58
2023/11/27 05:07:09;;;;;;;3.50;1.38;;;;;;;21.96;28.45;100309.34;4237257;27;20091;-58
2023/11/27 05:09:12;;;;;;;3.30;1.23;;;;;;;21.99;28.08;100302.84;4249445;27;20123;-58
2023/11/27 05:11:21;;;;;;;3.08;1.40;;;;;;;21.99;28.29;100297.50;4221717;28;20036;-58
2023/11/27 05:13:22;;;;;;;4.05;1.40;;;;;;;21.98;28.13;100298.47;4246848;27;20115;-58
2023/11/27 05:15:24;;;;;;;3.85;1.30;;;;;;;21.97;28.35;100292.28;4247617;27;20154;-57
2023/11/27 05:17:31;;;;;;;3.67;1.33;;;;;;;21.95;28.06;100299.59;4237784;27;20070;-58
2023/11/27 05:19:35;;;;;;;3.13;1.30;;;;;;;21.94;28.25;100295.22;4249022;27;20053;-58
2023/11/27 05:21:37;;;;;;;3.58;1.50;;;;;;;21.92;28.32;100291.88;4239157;27;20501;-58
2023/11/27 05:23:42;;;;;;;3.13;1.20;;;;;;;21.93;28.47;100295.38;4245872;27;20043;-58
2023/11/27 05:25:43;;;;;;;3.20;1.23;;;;;;;21.92;28.39;100277.63;4247438;27;20400;-58
2023/11/27 05:27:45;;;;;;;3.28;1.30;;;;;;;21.97;28.18;100278.03;4237290;27;20039;-57
2023/11/27 05:29:47;;;;;;;4.43;1.52;;;;;;;21.98;28.14;100275.25;4249048;27;20560;-58
2023/11/27 05:31:49;;;;;;;4.15;1.60;;;;;;;21.99;28.42;100276.94;4240726;27;20485;-58
2023/11/27 05:33:51;;;;;;;3.63;1.63;;;;;;;22.01;28.42;100274.13;4244353;27;20385;-58
2023/11/27 05:35:54;;;;;;;3.25;1.27;;;;;;;22.00;28.31;100269.75;4246889;27;20051;-58
2023/11/27 05:37:55;;;;;;;3.83;1.50;;;;;;;21.98;28.51;100267.22;4237037;27;20061;-57
2023/11/27 05:39:57;;;;;;;3.65;1.38;;;;;;;21.95;28.54;100258.63;4249002;27;20075;-57
2023/11/27 05:42:02;;;;;;;2.92;1.23;;;;;;;21.92;28.52;100257.06;4241915;27;20082;-56
2023/11/27 05:44:04;;;;;;;4.13;1.40;;;;;;;21.91;28.31;100255.38;4243061;27;20043;-58
2023/11/27 05:46:06;;;;;;;3.40;1.33;;;;;;;21.91;28.20;100252.69;4247640;27;20107;-58
2023/11/27 05:48:13;;;;;;;4.03;1.40;;;;;;;21.94;28.47;100246.22;4242910;27;20045;-56
2023/11/27 05:50:22;;;;;;;3.28;1.40;;;;;;;21.95;28.43;100248.75;4231318;28;20052;-58
2023/11/27 05:52:24;;;;;;;4.00;1.40;;;;;;;21.99;28.17;100247.50;4238481;27;20092;-57
2023/11/27 05:54:27;;;;;;;3.10;1.48;;;;;;;21.99;28.66;100247.50;4236692;27;20051;-59
2023/11/27 05:56:28;;;;;;;;;;;;;;;21.97;28.45;100246.78;4233345;27;20051;-56
2023/11/27 05:58:30;;;;;;;3.53;1.30;;;;;;;21.94;28.27;100240.84;4242850;27;19919;-57
2023/11/27 06:00:32;;;;;;;3.38;1.48;;;;;;;21.96;28.48;100244.25;4231322;28;20417;-56
2023/11/27 06:02:34;;;;;;;;;;;;;;;21.92;28.45;100238.31;4237303;27;20362;-55
2023/11/27 06:04:35;;;;;;;3.90;1.55;;;;;;;21.90;28.35;100239.44;4237968;27;19925;-58
2023/11/27 06:06:37;;;;;;;3.15;1.30;;;;;;;21.89;28.65;100233.25;4231421;28;20052;-56
2023/11/27 06:08:41;;;;;;;3.17;1.52;;;;;;;21.90;28.58;100231.41;4246390;27;20058;-56
2023/11/27 06:10:43;;;;;;;4.38;1.52;;;;;;;21.92;28.58;100227.63;4231409;28;20047;-57
2023/11/27 06:12:45;;;;;;;3.72;1.40;;;;;;;21.91;28.52;100215.22;4235323;27;20051;-57
2023/11/27 06:14:47;;;;;;;3.58;1.42;;;;;;;21.96;28.43;100222.81;4239266;27;20057;-57
2023/11/27 06:16:49;;;;;;;3.38;1.38;;;;;;;21.96;28.63;100215.63;4230923;28;20051;-57
2023/11/27 06:18:51;;;;;;;;;;;;;;;21.94;28.69;100219.44;4243231;27;20496;-57
2023/11/27 06:20:53;;;;;;;3.65;1.40;;;;;;;21.90;28.50;100207.31;4231352;27;20369;-58
2023/11/27 06:22:57;;;;;;;;;;;;;;;21.91;28.68;100209.00;4234101;27;20113;-57
2023/11/27 06:24:59;;;;;;;4.75;1.60;;;;;;;21.89;28.94;100200.28;4240387;27;19927;-58
2023/11/27 06:27:01;;;;;;;3.35;1.40;;;;;;;21.89;28.42;100202.97;4231030;28;20445;-59
2023/11/27 06:29:02;;;;;;;2.22;1.20;;;;;;;21.89;28.63;100195.75;4241726;27;20054;-57
2023/11/27 06:31:04;;;;;;;2.55;1.27;;;;;;;21.91;28.82;100196.47;4232442;27;20415;-58
2023/11/27 06:33:06;;;;;;;3.15;1.50;;;;;;;21.95;28.57;100199.72;4231753;27;20504;-58
2023/11/27 06:35:11;;;;;;;3.45;1.52;;;;;;;21.97;28.91;100195.03;4242112;27;20047;-58
2023/11/27 06:37:14;;;;;;;3.45;1.50;;;;;;;21.96;28.70;100193.38;4230584;28;20096;-57
2023/11/27 06:39:16;;;;;;;2.97;1.25;;;;;;;21.96;28.52;100183.50;4240411;27;20047;-57
2023/11/27 06:41:18;;;;;;;3.72;1.45;;;;;;;21.95;28.60;100189.84;4233212;27;20116;-57
2023/11/27 06:43:19;;;;;;;3.10;1.30;;;;;;;21.93;28.92;100174.91;4230766;27;20051;-57
2023/11/27 06:45:22;;;;;;;4.03;1.50;;;;;;;21.91;28.59;100167.03;4242004;27;20083;-57
2023/11/27 06:47:24;;;;;;;3.10;1.50;;;;;;;21.89;29.13;100173.50;4243918;27;20053;-57
2023/11/27 06:49:26;;;;;;;3.58;1.48;;;;;;;21.88;29.21;100175.31;4243100;27;20458;-58
2023/11/27 06:51:28;;;;;;;3.25;1.50;;;;;;;21.89;29.00;100177.00;4234875;27;20058;-58
2023/11/27 06:53:29;;;;;;;4.15;1.60;;;;;;;21.92;28.76;100173.22;4231691;27;20074;-57
2023/11/27 06:55:31;;;;;;;2.92;1.33;;;;;;;21.94;28.69;100160.53;4242049;27;20059;-57
2023/11/27 06:57:33;;;;;;;3.92;1.50;;;;;;;21.96;28.57;100155.88;4230643;28;20043;-56
2023/11/27 06:59:39;;;;;;;4.03;1.42;;;;;;;21.97;28.75;100144.16;4237720;27;20118;-57
2023/11/27 07:01:41;;;;;;;3.10;1.40;;;;;;;21.96;28.97;100140.66;4235367;27;20049;-57
2023/11/27 07:03:43;;;;;;;3.03;1.42;;;;;;;21.94;28.92;100142.63;4231571;27;20060;-56
2023/11/27 07:05:45;;;;;;;3.03;1.30;;;;;;;21.93;28.62;100138.25;4241730;27;20047;-56
2023/11/27 07:07:47;;;;;;;3.53;1.50;;;;;;;21.91;29.12;100137.56;4230351;28;20122;-57
2023/11/27 07:09:48;;;;;;;2.85;1.48;;;;;;;21.79;29.17;100117.31;4235720;27;20147;-58
2023/11/27 07:11:50;;;;;;;3.22;1.27;;;;;;;21.90;28.91;100135.03;4237138;27;20040;-57
2023/11/27 07:13:52;;;;;;;2.65;1.33;;;;;;;21.92;28.89;100131.22;4230152;28;20044;-58
2023/11/27 07:15:53;;;;;;;;;;;;;;;21.92;29.06;100128.56;4234625;27;20127;-58
2023/11/27 07:17:57;;;;;;;3.63;1.58;;;;;;;21.93;29.29;100129.38;4246600;27;19950;-58
2023/11/27 07:20:21;;;;;;;3.42;1.42;;;;;;;21.91;29.01;100112.63;4239987;27;20135;-57
2023/11/27 07:22:22;;;;;;;2.70;1.33;;;;;;;21.94;28.91;100113.16;4241820;27;20074;-57
2023/11/27 07:24:24;;;;;;;2.17;1.20;;;;;;;21.93;28.87;100111.47;4228644;28;20075;-57
2023/11/27 07:26:29;;;;;;;2.65;1.20;;;;;;;21.93;29.06;100111.47;4217034;28;20048;-58
2023/11/27 07:28:30;;;;;;;3.45;1.40;;;;;;;21.92;29.15;100114.31;4247129;27;20126;-56
2023/11/27 07:30:32;;;;;;;3.05;1.20;;;;;;;21.89;28.83;100110.09;4240462;27;20040;-59
2023/11/27 07:32:34;;;;;;;2.88;1.20;;;;;;;21.89;28.98;100109.25;4240497;27;20043;-58
2023/11/27 07:34:35;;;;;;;2.65;1.13;;;;;;;21.86;29.01;100107.72;4246465;27;20528;-58
2023/11/27 07:36:37;;;;;;;;;;;;;;;21.91;28.95;100107.25;4235074;27;20055;-58
2023/11/27 07:38:40;;;;;;;2.67;1.25;;;;;;;21.91;29.18;100110.78;4246975;27;19983;-58
2023/11/27 07:40:42;;;;;;;2.58;1.20;;;;;;;21.93;29.36;100100.78;4242184;27;20123;-57
2023/11/27 07:42:44;;;;;;;;;;;;;;;21.92;29.36;100091.06;4239387;27;20487;-57
2023/11/27 07:44:46;;;;;;;2.50;1.30;;;;;;;21.91;29.33;100093.88;4247001;27;19923;-58
2023/11/27 07:46:47;;;;;;;3.42;1.30;;;;;;;21.92;28.97;100090.22;4227740;28;20532;-57
2023/11/27 07:48:49;;;;;;;2.63;1.20;;;;;;;21.91;28.91;100096.56;4246689;27;20049;-57
2023/11/27 07:50:51;;;;;;;2.88;1.10;;;;;;;21.89;29.41;100091.34;4243790;28;20057;-57
2023/11/27 07:52:52;;;;;;;2.35;1.20;;;;;;;21.86;29.10;100087.13;4236954;28;20044;-57
2023/11/27 07:54:55;;;;;;;2.35;1.20;;;;;;;21.88;29.16;100072.75;4246945;28;20122;-57
2023/11/27 07:56:57;;;;;;;3.75;1.10;;;;;;;21.88;29.17;100070.09;4235868;28;20154;-57
2023/11/27 07:59:00;;;;;;;3.38;1.20;;;;;;;21.90;29.22;100055.56;4244742;28;20051;-58
2023/11/27 08:01:01;;;;;;;2.20;1.10;;;;;;;21.92;29.30;100056.28;4244949;28;20092;-58
2023/11/27 08:03:03;;;;;;;2.38;1.23;;;;;;;21.93;29.13;100057.94;4235605;28;20043;-58
2023/11/27 08:05:08;;;;;;;3.85;1.55;;;;;;;21.94;29.14;100051.59;4246777;28;20470;-58
2023/11/27 08:07:10;;;;;;;2.92;1.20;;;;;;;21.93;29.08;100049.91;4236551;28;20440;-58
2023/11/27 08:09:12;;;;;;;3.13;1.20;;;;;;;21.91;29.40;100049.22;4225680;28;20090;-57
2023/11/27 08:11:14;;;;;;;;;;;;;;;21.91;29.37;100051.91;4245778;28;20047;-57
2023/11/27 08:13:15;;;;;;;3.15;1.20;;;;;;;21.86;29.21;100049.66;4233886;28;19927;-57
2023/11/27 08:15:18;;;;;;;4.43;1.20;;;;;;;21.88;29.33;100040.63;4246468;28;20051;-58
2023/11/27 08:17:20;;;;;;;3.28;1.23;;;;;;;21.89;29.47;100034.31;4237968;28;20122;-57
2023/11/27 08:19:22;;;;;;;3.78;1.40;;;;;;;21.90;29.49;100030.63;4242363;28;20513;-57
2023/11/27 08:21:25;;;;;;;3.05;1.33;;;;;;;21.93;29.49;100033.00;4244855;28;20134;-57
2023/11/27 08:23:27;;;;;;;5.07;1.40;;;;;;;21.94;29.26;100030.19;4235193;28;20039;-57
2023/11/27 08:25:29;;;;;;;3.85;1.38;;;;;;;21.93;29.11;100024.97;4246664;28;20154;-57
2023/11/27 08:27:30;;;;;;;3.75;1.40;;;;;;;21.93;29.11;100028.47;4239403;28;20428;-57
2023/11/27 08:29:32;;;;;;;4.32;1.50;;;;;;;21.92;29.56;100029.50;4242361;27;20054;-57
2023/11/27 08:31:35;;;;;;;4.35;1.48;;;;;;;21.90;29.53;100025.28;4231404;28;20046;-57
2023/11/27 08:33:37;;;;;;;2.95;1.27;;;;;;;21.88;29.08;100004.00;4246036;27;20047;-57
2023/11/27 08:35:38;;;;;;;5.13;1.85;;;;;;;21.86;29.45;100000.63;4249700;27;20051;-57
2023/11/27 08:37:40;;;;;;;3.70;1.30;;;;;;;21.85;29.58;99994.41;4244151;27;20044;-57
2023/11/27 08:39:43;;;;;;;3.38;1.20;;;;;;;21.88;29.22;100006.66;4242318;27;20043;-57
2023/11/27 08:41:44;;;;;;;2.55;1.10;;;;;;;21.88;29.45;99990.59;4249250;27;20046;-57
2023/11/27 08:43:46;;;;;;;2.90;0.93;;;;;;;21.91;29.55;99995.69;4236373;27;20462;-56
2023/11/27 08:45:48;;;;;;;;;;;;;;;21.96;29.24;99997.91;4239203;27;20047;-60
2023/11/27 08:47:50;;;;;;;;;;;;;;;21.94;29.35;99989.19;4242647;27;19926;-64
2023/11/27 08:49:54;;;;;;;2.45;1.10;;;;;;;21.93;29.46;99995.53;4249571;27;19923;-61
2023/11/27 08:51:55;;;;;;;;;;;;;;;21.94;29.29;99987.34;4232710;28;20044;-61
2023/11/27 08:53:57;;;;;;;3.10;1.10;;;;;;;21.93;29.51;99988.31;4238212;27;19920;-61
2023/11/27 08:56:00;;;;;;;3.47;1.00;;;;;;;21.95;29.80;99980.16;4248926;27;20134;-61
2023/11/27 08:58:06;;;;;;;2.28;1.00;;;;;;;21.94;29.58;99973.94;4226384;28;20067;-61
2023/11/27 09:00:12;;;;;;;2.97;1.20;;;;;;;21.96;29.80;99968.47;4241680;27;20043;-62
2023/11/27 09:02:14;;;;;;;3.50;1.20;;;;;;;21.99;29.53;99960.13;4234117;27;20100;-71
2023/11/27 09:04:18;;;;;;;2.55;0.93;;;;;;;21.99;29.46;99955.63;4230078;27;20052;-64
2023/11/27 09:06:20;;;;;;;2.08;0.98;;;;;;;22.02;29.18;99951.81;4232946;27;20416;-62
2023/11/27 09:08:22;;;;;;;;;;;;;;;22.02;29.58;99957.16;4234311;27;20088;-58
2023/11/27 09:10:24;;;;;;;2.47;1.00;;;;;;;22.02;29.51;99952.66;4242196;27;19926;-58
2023/11/27 09:12:25;;;;;;;3.08;1.00;;;;;;;22.02;29.18;99935.75;4231748;28;20110;-59
2023/11/27 09:14:27;;;;;;;2.88;1.10;;;;;;;22.03;29.23;99934.75;4241955;27;20036;-64
2023/11/27 09:16:29;;;;;;;2.38;1.00;;;;;;;22.01;29.55;99928.72;4234290;27;20240;-60
2023/11/27 09:18:32;;;;;;;2.80;0.95;;;;;;;22.01;29.29;99926.84;4233161;27;20043;-58
2023/11/27 09:20:34;;;;;;;2.88;1.33;;;;;;;22.00;29.72;99919.81;4247315;27;20035;-59
2023/11/27 09:22:36;;;;;;;;;;;;;;;22.05;29.46;99918.53;4240895;27;20104;-59
2023/11/27 09:24:38;;;;;;;4.00;1.00;;;;;;;22.03;29.54;99913.34;4244394;27;20054;-59
2023/11/27 09:26:41;;;;;;;2.38;1.02;;;;;;;22.08;29.44;99912.88;4235243;27;20053;-60
2023/11/27 09:28:42;;;;;;;3.42;1.08;;;;;;;22.12;29.55;99911.59;4237010;27;20043;-60
2023/11/27 09:30:44;;;;;;;2.33;1.13;;;;;;;22.13;29.39;99911.44;4243156;27;20040;-59
2023/11/27 09:32:46;;;;;;;3.10;1.20;;;;;;;22.14;29.57;99917.63;4231998;28;20051;-62
2023/11/27 09:34:48;;;;;;;2.40;1.05;;;;;;;22.13;29.58;99908.75;4238552;27;20043;-63
2023/11/27 09:36:50;;;;;;;4.07;1.20;;;;;;;22.12;29.36;99906.25;4247849;27;20047;-59